createdAt,value
2023-11-18T00:01:33.466Z,13.90
2023-11-18T00:04:00.267Z,7.80
2023-11-18T00:06:26.790Z,11.02
2023-11-18T00:08:53.290Z,10.20
2023-11-18T00:11:19.775Z,10.25
2023-11-18T00:13:46.280Z,11.52
2023-11-18T00:16:12.803Z,13.10
2023-11-18T00:18:43.214Z,11.27
2023-11-18T00:21:09.823Z,11.32
2023-11-18T00:23:36.370Z,14.02
2023-11-18T00:26:03.610Z,9.25
2023-11-18T00:28:30.384Z,15.10
2023-11-18T00:30:56.903Z,10.50
2023-11-18T00:33:23.557Z,7.45
2023-11-18T00:35:50.216Z,9.02
2023-11-18T00:38:16.667Z,9.32
2023-11-18T00:40:43.136Z,11.35
2023-11-18T00:43:09.962Z,9.55
2023-11-18T00:45:36.424Z,10.95
2023-11-18T00:48:02.902Z,10.35
2023-11-18T00:50:29.481Z,9.77
2023-11-18T00:52:56.038Z,12.45
2023-11-18T00:55:22.682Z,9.25
2023-11-18T00:57:49.157Z,11.90
2023-11-18T01:00:16.542Z,10.73
2023-11-18T01:02:44.437Z,11.02
2023-11-18T01:05:11.045Z,11.40
2023-11-18T01:07:38.891Z,13.40
2023-11-18T01:10:06.876Z,13.48
2023-11-18T01:12:33.543Z,11.80
2023-11-18T01:15:00.382Z,12.73
2023-11-18T01:17:26.913Z,10.63
2023-11-18T01:19:53.428Z,14.85
2023-11-18T01:22:20.457Z,10.15
2023-11-18T01:24:46.939Z,9.15
2023-11-18T01:27:14.297Z,9.15
2023-11-18T01:29:40.844Z,12.65
2023-11-18T01:32:07.780Z,11.32
2023-11-18T01:34:34.278Z,12.65
2023-11-18T01:37:00.914Z,12.63
2023-11-18T01:39:27.360Z,12.43
2023-11-18T01:41:54.003Z,10.55
2023-11-18T01:44:20.452Z,10.05
2023-11-18T01:46:47.239Z,8.77
2023-11-18T01:49:15.627Z,8.30
2023-11-18T01:51:44.867Z,9.77
2023-11-18T01:54:13.492Z,11.73
2023-11-18T01:56:40.142Z,10.90
2023-11-18T01:59:07.071Z,12.43
2023-11-18T02:01:34.341Z,9.82
2023-11-18T02:04:01.129Z,13.88
2023-11-18T02:06:28.376Z,11.35
2023-11-18T02:08:55.047Z,11.63
2023-11-18T02:11:37.062Z,9.77
2023-11-18T02:14:05.159Z,12.30
2023-11-18T02:16:33.081Z,9.13
2023-11-18T02:19:00.968Z,10.15
2023-11-18T02:21:28.148Z,8.80
2023-11-18T02:23:54.608Z,9.02
2023-11-18T02:26:24.811Z,11.88
2023-11-18T02:28:51.610Z,16.25
2023-11-18T02:31:25.727Z,13.07
2023-11-18T02:34:06.626Z,9.82
2023-11-18T02:36:37.591Z,8.57
2023-11-18T02:39:06.945Z,7.40
2023-11-18T02:41:34.813Z,9.27
2023-11-18T02:44:03.482Z,10.18
2023-11-18T02:46:30.311Z,10.98
2023-11-18T02:48:56.789Z,10.18
2023-11-18T02:51:24.214Z,10.63
2023-11-18T02:53:50.691Z,9.18
2023-11-18T02:56:17.154Z,9.73
2023-11-18T02:58:43.832Z,8.63
2023-11-18T03:01:10.320Z,10.88
2023-11-18T03:03:37.097Z,9.05
2023-11-18T03:06:03.820Z,8.05
2023-11-18T03:08:30.287Z,7.97
2023-11-18T03:10:57.330Z,7.13
2023-11-18T03:13:23.889Z,9.07
2023-11-18T03:15:52.070Z,7.80
2023-11-18T03:18:18.649Z,10.70
2023-11-18T03:20:45.161Z,9.85
2023-11-18T03:23:11.617Z,10.07
2023-11-18T03:25:38.186Z,10.93
2023-11-18T03:28:04.730Z,8.32
2023-11-18T03:30:31.235Z,10.20
2023-11-18T03:32:57.760Z,8.48
2023-11-18T03:35:24.429Z,9.05
2023-11-18T03:37:51.362Z,9.55
2023-11-18T03:40:17.821Z,9.20
2023-11-18T03:42:44.740Z,7.93
2023-11-18T03:45:11.625Z,7.97
2023-11-18T03:47:38.902Z,7.43
2023-11-18T03:50:05.903Z,8.10
2023-11-18T03:52:32.525Z,7.43
2023-11-18T03:54:59.044Z,7.32
2023-11-18T03:57:25.488Z,7.53
2023-11-18T03:59:51.969Z,6.88
2023-11-18T04:02:18.421Z,7.25
2023-11-18T04:04:45.886Z,7.78
2023-11-18T04:07:12.416Z,7.03
2023-11-18T04:09:38.924Z,7.80
2023-11-18T04:12:05.809Z,6.63
2023-11-18T04:14:32.255Z,8.57
2023-11-18T04:16:58.817Z,8.07
2023-11-18T04:19:25.499Z,7.40
2023-11-18T04:21:51.948Z,7.47
2023-11-18T04:24:18.431Z,7.10
2023-11-18T04:26:44.908Z,7.15
2023-11-18T04:29:11.521Z,7.90
2023-11-18T04:31:38.276Z,7.55
2023-11-18T04:34:04.943Z,8.90
2023-11-18T04:36:31.497Z,11.82
2023-11-18T04:39:01.224Z,12.75
2023-11-18T04:41:27.855Z,11.02
2023-11-18T04:43:54.361Z,9.50
2023-11-18T04:46:20.889Z,10.90
2023-11-18T04:48:48.467Z,8.50
2023-11-18T04:51:15.004Z,3.30
2023-11-18T04:53:41.501Z,7.20
2023-11-18T04:56:08.455Z,7.00
2023-11-18T04:58:34.903Z,7.85
2023-11-18T05:01:01.393Z,7.22
2023-11-18T05:03:27.948Z,7.80
2023-11-18T05:05:57.745Z,6.43
2023-11-18T05:08:25.090Z,6.85
2023-11-18T05:10:51.924Z,4.95
2023-11-18T05:13:19.279Z,7.43
2023-11-18T05:15:46.662Z,6.63
2023-11-18T05:18:15.122Z,5.75
2023-11-18T05:20:42.360Z,6.43
2023-11-18T05:23:09.524Z,6.88
2023-11-18T05:25:35.996Z,6.82
2023-11-18T05:28:02.504Z,4.63
2023-11-18T05:30:28.989Z,6.75
2023-11-18T05:32:56.377Z,6.30
2023-11-18T05:35:22.876Z,4.75
2023-11-18T05:37:49.342Z,4.35
2023-11-18T05:40:15.884Z,6.57
2023-11-18T05:42:42.386Z,8.50
2023-11-18T05:45:09.240Z,6.72
2023-11-18T05:47:35.770Z,7.50
2023-11-18T05:50:02.366Z,7.45
2023-11-18T05:52:28.879Z,6.93
2023-11-18T05:54:55.719Z,8.02
2023-11-18T05:57:22.194Z,5.47
2023-11-18T05:59:49.046Z,5.05
2023-11-18T06:02:15.638Z,7.03
2023-11-18T06:04:42.123Z,3.97
2023-11-18T06:07:08.680Z,6.75
2023-11-18T06:09:35.580Z,7.00
2023-11-18T06:12:02.048Z,5.25
2023-11-18T06:14:28.777Z,6.50
2023-11-18T06:16:55.362Z,6.93
2023-11-18T06:19:21.921Z,7.70
2023-11-18T06:21:48.416Z,8.20
2023-11-18T06:24:14.896Z,7.07
2023-11-18T06:26:41.474Z,6.93
2023-11-18T06:29:08.065Z,8.25
2023-11-18T06:31:34.595Z,7.40
2023-11-18T06:34:01.111Z,8.52
2023-11-18T06:36:27.743Z,7.90
2023-11-18T06:38:55.087Z,7.68
2023-11-18T06:41:23.443Z,9.45
2023-11-18T06:43:50.837Z,7.50
2023-11-18T06:46:17.281Z,7.32
2023-11-18T06:48:43.832Z,8.20
2023-11-18T06:51:10.513Z,7.20
2023-11-18T06:53:36.974Z,7.00
2023-11-18T06:56:03.692Z,6.93
2023-11-18T06:58:30.607Z,5.05
2023-11-18T07:00:57.079Z,4.72
2023-11-18T07:03:23.766Z,7.35
2023-11-18T07:05:50.436Z,7.43
2023-11-18T07:08:16.991Z,6.00
2023-11-18T07:10:43.556Z,7.97
2023-11-18T07:13:10.058Z,7.22
2023-11-18T07:15:36.536Z,7.57
2023-11-18T07:18:03.338Z,5.10
2023-11-18T07:20:30.123Z,7.47
2023-11-18T07:22:56.638Z,5.30
2023-11-18T07:25:23.092Z,6.25
2023-11-18T07:27:49.616Z,7.28
2023-11-18T07:30:16.562Z,6.95
2023-11-18T07:32:43.057Z,6.65
2023-11-18T07:35:09.631Z,7.57
2023-11-18T07:37:37.077Z,10.95
2023-11-18T07:40:05.690Z,5.82
2023-11-18T07:42:32.868Z,8.88
2023-11-18T07:44:59.297Z,5.32
2023-11-18T07:47:25.764Z,8.00
2023-11-18T07:49:55.077Z,7.82
2023-11-18T07:52:21.601Z,2.70
2023-11-18T07:54:49.174Z,6.93
2023-11-18T07:57:16.702Z,4.95
2023-11-18T07:59:43.143Z,7.82
2023-11-18T08:02:09.659Z,7.03
2023-11-18T08:04:36.138Z,6.53
2023-11-18T08:07:02.759Z,6.28
2023-11-18T08:09:29.451Z,6.03
2023-11-18T08:11:56.923Z,7.03
2023-11-18T08:14:23.735Z,6.68
2023-11-18T08:16:50.410Z,7.53
2023-11-18T08:19:17.055Z,7.57
2023-11-18T08:21:43.511Z,7.22
2023-11-18T08:24:10.255Z,3.83
2023-11-18T08:26:36.915Z,5.55
2023-11-18T08:29:03.577Z,6.75
2023-11-18T08:31:30.199Z,7.05
2023-11-18T08:33:56.638Z,5.50
2023-11-18T08:36:24.025Z,6.63
2023-11-18T08:38:50.491Z,7.88
2023-11-18T08:41:17.023Z,8.57
2023-11-18T08:43:43.537Z,7.97
2023-11-18T08:46:12.420Z,6.38
2023-11-18T08:48:38.872Z,6.60
2023-11-18T08:51:05.850Z,6.20
2023-11-18T08:53:32.258Z,4.13
2023-11-18T08:55:58.778Z,6.68
2023-11-18T08:58:27.336Z,5.90
2023-11-18T09:00:57.490Z,6.10
2023-11-18T09:03:25.302Z,7.18
2023-11-18T09:05:56.001Z,6.65
2023-11-18T09:08:22.438Z,4.35
2023-11-18T09:10:48.897Z,6.07
2023-11-18T09:13:15.308Z,6.72
2023-11-18T09:15:41.779Z,6.32
2023-11-18T09:18:08.406Z,6.15
2023-11-18T09:20:34.908Z,5.22
2023-11-18T09:23:03.827Z,5.00
2023-11-18T09:25:30.637Z,5.78
2023-11-18T09:27:57.097Z,5.13
2023-11-18T09:30:23.592Z,5.63
2023-11-18T09:32:50.164Z,4.90
2023-11-18T09:35:16.668Z,4.15
2023-11-18T09:37:43.206Z,5.03
2023-11-18T09:40:14.912Z,6.60
2023-11-18T09:42:41.960Z,6.55
2023-11-18T09:45:08.712Z,5.40
2023-11-18T09:47:42.912Z,6.57
2023-11-18T09:50:11.879Z,5.10
2023-11-18T09:52:48.181Z,3.90
2023-11-18T09:55:34.077Z,5.03
2023-11-18T09:58:05.318Z,5.57
2023-11-18T10:00:32.126Z,3.83
2023-11-18T10:02:59.027Z,4.90
2023-11-18T10:05:28.720Z,2.35
2023-11-18T10:07:55.604Z,4.30
2023-11-18T10:10:22.385Z,5.53
2023-11-18T10:12:51.083Z,3.72
2023-11-18T10:15:19.058Z,5.40
2023-11-18T10:17:46.626Z,5.20
2023-11-18T10:20:13.181Z,5.53
2023-11-18T10:22:39.636Z,6.28
2023-11-18T10:25:06.407Z,6.07
2023-11-18T10:27:33.160Z,3.00
2023-11-18T10:30:04.134Z,5.13
2023-11-18T10:32:31.302Z,3.85
2023-11-18T10:34:58.522Z,2.55
2023-11-18T10:37:28.901Z,3.33
2023-11-18T10:39:55.350Z,3.80
2023-11-18T10:42:22.267Z,3.13
2023-11-18T10:44:58.874Z,3.03
2023-11-18T10:47:29.278Z,4.78
2023-11-18T10:49:56.239Z,3.67
2023-11-18T10:52:24.108Z,5.07
2023-11-18T10:54:54.084Z,3.88
2023-11-18T10:57:21.233Z,3.50
2023-11-18T11:00:05.606Z,3.90
2023-11-18T11:02:32.293Z,5.22
2023-11-18T11:04:58.748Z,4.40
2023-11-18T11:07:27.159Z,3.83
2023-11-18T11:09:53.609Z,4.60
2023-11-18T11:12:20.726Z,5.22
2023-11-18T11:15:00.336Z,4.22
2023-11-18T11:17:28.914Z,3.95
2023-11-18T11:20:03.865Z,4.55
2023-11-18T11:22:39.609Z,4.93
2023-11-18T11:25:34.113Z,4.40
2023-11-18T11:28:11.686Z,5.38
2023-11-18T11:30:56.203Z,4.68
2023-11-18T11:33:30.181Z,4.18
2023-11-18T11:35:57.700Z,5.07
2023-11-18T11:38:25.823Z,4.97
2023-11-18T11:40:52.824Z,3.63
2023-11-18T11:43:19.313Z,4.25
2023-11-18T11:45:46.182Z,2.78
2023-11-18T11:48:13.093Z,4.53
2023-11-18T11:50:54.568Z,2.85
2023-11-18T11:53:27.882Z,4.00
2023-11-18T11:55:55.875Z,4.38
2023-11-18T11:58:32.461Z,6.07
2023-11-18T12:01:02.902Z,5.18
2023-11-18T12:03:32.091Z,4.68
2023-11-18T12:05:58.729Z,5.18
2023-11-18T12:08:25.236Z,3.13
2023-11-18T12:10:54.614Z,3.65
2023-11-18T12:13:21.377Z,5.13
2023-11-18T12:15:56.203Z,3.83
2023-11-18T12:18:23.198Z,3.50
2023-11-18T12:20:49.861Z,2.17
2023-11-18T12:23:16.978Z,2.63
2023-11-18T12:25:46.850Z,3.28
2023-11-18T12:28:17.844Z,2.38
2023-11-18T12:30:45.765Z,2.92
2023-11-18T12:33:12.368Z,3.50
2023-11-18T12:35:47.053Z,3.90
2023-11-18T12:38:51.231Z,3.80
2023-11-18T12:41:37.496Z,2.83
2023-11-18T12:44:22.119Z,2.83
2023-11-18T12:46:53.929Z,3.92
2023-11-18T12:49:23.720Z,3.40
2023-11-18T12:51:55.114Z,3.38
2023-11-18T12:54:25.124Z,3.97
2023-11-18T12:56:52.697Z,3.28
2023-11-18T12:59:19.298Z,3.95
2023-11-18T13:01:48.196Z,3.00
2023-11-18T13:04:15.336Z,3.95
2023-11-18T13:06:41.999Z,3.53
2023-11-18T13:09:08.866Z,4.25
2023-11-18T13:11:35.356Z,5.32
2023-11-18T13:14:02.705Z,4.90
2023-11-18T13:16:29.497Z,3.88
2023-11-18T13:18:56.404Z,4.03
2023-11-18T13:21:22.999Z,4.93
2023-11-18T13:23:52.502Z,5.72
2023-11-18T13:26:20.641Z,4.05
2023-11-18T13:28:50.021Z,4.68
2023-11-18T13:31:22.958Z,4.07
2023-11-18T13:33:59.538Z,3.55
2023-11-18T13:36:33.342Z,3.38
2023-11-18T13:38:59.871Z,5.25
2023-11-18T13:41:32.566Z,6.45
2023-11-18T13:44:00.531Z,2.80
2023-11-18T13:46:28.974Z,3.30
2023-11-18T13:48:55.476Z,4.13
2023-11-18T13:51:22.498Z,4.85
2023-11-18T13:53:49.043Z,3.47
2023-11-18T13:56:15.829Z,4.97
2023-11-18T13:58:45.462Z,5.65
2023-11-18T14:01:12.543Z,4.53
2023-11-18T14:03:41.028Z,5.43
2023-11-18T14:06:08.737Z,4.68
2023-11-18T14:08:35.535Z,3.97
2023-11-18T14:11:03.697Z,4.47
2023-11-18T14:13:31.432Z,4.10
2023-11-18T14:16:00.946Z,4.32
2023-11-18T14:18:27.861Z,5.30
2023-11-18T14:20:54.923Z,3.83
2023-11-18T14:23:21.782Z,3.50
2023-11-18T14:25:48.872Z,2.72
2023-11-18T14:28:15.999Z,2.65
2023-11-18T14:30:42.491Z,2.78
2023-11-18T14:33:09.216Z,2.22
2023-11-18T14:35:36.054Z,3.40
2023-11-18T14:38:03.501Z,3.45
2023-11-18T14:40:30.219Z,3.47
2023-11-18T14:42:56.806Z,2.20
2023-11-18T14:45:23.705Z,2.72
2023-11-18T14:47:50.325Z,2.45
2023-11-18T14:50:23.899Z,2.85
2023-11-18T14:52:51.752Z,2.17
2023-11-18T14:55:18.943Z,2.78
2023-11-18T14:57:45.954Z,2.53
2023-11-18T15:00:13.511Z,2.33
2023-11-18T15:02:40.220Z,2.22
2023-11-18T15:05:07.117Z,2.20
2023-11-18T15:07:33.688Z,1.92
2023-11-18T15:10:00.212Z,2.53
2023-11-18T15:12:26.829Z,1.80
2023-11-18T15:14:53.345Z,1.75
2023-11-18T15:17:19.774Z,1.95
2023-11-18T15:19:46.205Z,2.13
2023-11-18T15:22:12.715Z,1.65
2023-11-18T15:24:39.209Z,1.60
2023-11-18T15:27:05.732Z,1.75
2023-11-18T15:29:32.363Z,1.30
2023-11-18T15:31:58.982Z,2.30
2023-11-18T15:34:25.480Z,2.00
2023-11-18T15:36:52.538Z,2.08
2023-11-18T15:39:19.033Z,2.05
2023-11-18T15:41:45.455Z,1.73
2023-11-18T15:44:11.932Z,1.48
2023-11-18T15:46:38.832Z,1.50
2023-11-18T15:49:05.334Z,1.73
2023-11-18T15:51:31.747Z,1.27
2023-11-18T15:53:58.249Z,1.55
2023-11-18T15:56:24.689Z,1.83
2023-11-18T15:58:51.779Z,1.48
2023-11-18T16:01:18.308Z,1.80
2023-11-18T16:03:44.857Z,1.40
2023-11-18T16:06:11.311Z,2.40
2023-11-18T16:08:38.262Z,2.13
2023-11-18T16:11:05.353Z,1.35
2023-11-18T16:13:31.865Z,1.33
2023-11-18T16:15:58.346Z,1.83
2023-11-18T16:18:24.866Z,1.77
2023-11-18T16:20:51.477Z,1.80
2023-11-18T16:23:18.047Z,1.33
2023-11-18T16:25:44.619Z,1.80
2023-11-18T16:28:11.260Z,1.55
2023-11-18T16:30:37.743Z,1.17
2023-11-18T16:33:04.241Z,1.25
2023-11-18T16:35:31.299Z,1.27
2023-11-18T16:37:58.298Z,1.25
2023-11-18T16:40:25.320Z,1.35
2023-11-18T16:42:53.644Z,0.95
2023-11-18T16:45:20.340Z,1.40
2023-11-18T16:47:46.959Z,1.73
2023-11-18T16:50:15.181Z,1.73
2023-11-18T16:52:41.825Z,1.25
2023-11-18T16:55:10.214Z,1.80
2023-11-18T16:57:37.998Z,2.08
2023-11-18T17:00:12.303Z,1.80
2023-11-18T17:02:38.885Z,1.08
2023-11-18T17:05:05.714Z,1.65
2023-11-18T17:07:32.188Z,1.33
2023-11-18T17:09:58.631Z,1.92
2023-11-18T17:12:25.139Z,2.25
2023-11-18T17:14:51.610Z,1.80
2023-11-18T17:17:18.129Z,2.08
2023-11-18T17:19:44.672Z,1.20
2023-11-18T17:22:11.229Z,1.77
2023-11-18T17:24:40.615Z,2.72
2023-11-18T17:27:07.137Z,1.45
2023-11-18T17:29:34.340Z,1.50
2023-11-18T17:32:00.837Z,0.90
2023-11-18T17:34:27.347Z,1.23
2023-11-18T17:36:56.395Z,2.05
2023-11-18T17:39:23.048Z,1.40
2023-11-18T17:41:49.701Z,1.60
2023-11-18T17:44:16.216Z,1.20
2023-11-18T17:46:42.697Z,1.00
2023-11-18T17:49:09.200Z,2.00
2023-11-18T17:51:35.831Z,2.15
2023-11-18T17:54:02.404Z,1.60
2023-11-18T17:56:29.002Z,1.20
2023-11-18T17:58:55.482Z,1.50
2023-11-18T18:01:24.523Z,1.60
2023-11-18T18:03:51.127Z,1.67
2023-11-18T18:06:17.650Z,2.28
2023-11-18T18:08:44.095Z,3.13
2023-11-18T18:11:10.576Z,2.63
2023-11-18T18:13:37.072Z,1.63
2023-11-18T18:16:04.035Z,2.50
2023-11-18T18:18:30.869Z,2.05
2023-11-18T18:20:57.336Z,2.03
2023-11-18T18:23:23.808Z,1.30
2023-11-18T18:25:50.605Z,2.10
2023-11-18T18:28:17.049Z,2.10
2023-11-18T18:30:43.668Z,1.98
2023-11-18T18:33:10.194Z,1.77
2023-11-18T18:35:36.790Z,1.90
2023-11-18T18:38:03.637Z,1.70
2023-11-18T18:40:32.603Z,1.92
2023-11-18T18:43:00.188Z,1.83
2023-11-18T18:45:26.659Z,1.33
2023-11-18T18:47:53.565Z,1.38
2023-11-18T18:50:20.835Z,1.60
2023-11-18T18:52:47.339Z,2.00
2023-11-18T18:55:13.950Z,2.10
2023-11-18T18:57:40.872Z,1.17
2023-11-18T19:00:08.180Z,1.50
2023-11-18T19:02:34.838Z,1.10
2023-11-18T19:05:01.603Z,1.60
2023-11-18T19:07:28.052Z,1.35
2023-11-18T19:09:54.540Z,1.40
2023-11-18T19:12:21.013Z,1.50
2023-11-18T19:14:47.472Z,1.60
2023-11-18T19:17:13.944Z,1.83
2023-11-18T19:19:40.437Z,2.50
2023-11-18T19:22:06.962Z,2.67
2023-11-18T19:24:33.657Z,1.83
2023-11-18T19:27:00.255Z,1.33
2023-11-18T19:29:27.192Z,1.95
2023-11-18T19:31:53.686Z,1.33
2023-11-18T19:34:20.294Z,1.67
2023-11-18T19:36:46.767Z,1.15
2023-11-18T19:39:13.541Z,1.05
2023-11-18T19:41:40.055Z,0.90
2023-11-18T19:44:06.728Z,1.10
2023-11-18T19:46:33.233Z,0.57
2023-11-18T19:49:00.467Z,0.80
2023-11-18T19:51:26.978Z,1.15
2023-11-18T19:53:53.539Z,0.80
2023-11-18T19:56:20.110Z,1.00
2023-11-18T19:58:46.641Z,0.73
2023-11-18T20:01:19.285Z,0.45
2023-11-18T20:03:48.938Z,0.65
2023-11-18T20:06:15.475Z,0.55
2023-11-18T20:08:42.745Z,0.40
2023-11-18T20:11:09.419Z,0.22
2023-11-18T20:13:36.421Z,0.30
2023-11-18T20:16:03.069Z,0.50
2023-11-18T20:18:29.588Z,0.82
2023-11-18T20:20:56.085Z,0.60
2023-11-18T20:23:22.684Z,0.45
2023-11-18T20:25:49.466Z,0.57
2023-11-18T20:28:15.954Z,0.60
2023-11-18T20:30:42.511Z,0.73
2023-11-18T20:33:09.011Z,0.70
2023-11-18T20:35:35.751Z,0.60
2023-11-18T20:38:02.452Z,0.80
2023-11-18T20:40:29.732Z,1.10
2023-11-18T20:42:56.221Z,1.15
2023-11-18T20:45:22.809Z,0.40
2023-11-18T20:47:49.724Z,0.30
2023-11-18T20:50:16.558Z,0.47
2023-11-18T20:52:43.386Z,0.60
2023-11-18T20:55:10.540Z,0.30
2023-11-18T20:57:37.815Z,0.73
2023-11-18T21:00:09.087Z,0.50
2023-11-18T21:02:43.328Z,0.80
2023-11-18T21:05:12.040Z,0.60
2023-11-18T21:07:38.651Z,0.82
2023-11-18T21:10:05.636Z,0.63
2023-11-18T21:12:32.262Z,0.70
2023-11-18T21:14:58.774Z,0.70
2023-11-18T21:17:25.829Z,0.80
2023-11-18T21:19:53.341Z,0.80
2023-11-18T21:22:20.705Z,0.90
2023-11-18T21:24:47.542Z,0.50
2023-11-18T21:27:14.004Z,0.70
2023-11-18T21:29:40.458Z,0.82
2023-11-18T21:32:07.344Z,0.88
2023-11-18T21:34:33.976Z,0.80
2023-11-18T21:37:00.419Z,0.52
2023-11-18T21:39:27.331Z,1.10
2023-11-18T21:41:53.832Z,1.40
2023-11-18T21:44:20.364Z,1.00
2023-11-18T21:46:47.328Z,0.60
2023-11-18T21:49:13.792Z,1.77
2023-11-18T21:51:40.292Z,1.20
2023-11-18T21:54:06.876Z,2.10
2023-11-18T21:56:36.339Z,1.17
2023-11-18T21:59:03.188Z,0.40
2023-11-18T22:01:30.900Z,0.73
2023-11-18T22:03:57.556Z,1.10
2023-11-18T22:06:24.506Z,1.00
2023-11-18T22:08:51.763Z,1.75
2023-11-18T22:11:18.278Z,1.02
2023-11-18T22:13:44.996Z,0.65
2023-11-18T22:16:11.511Z,0.60
2023-11-18T22:18:41.315Z,0.77
2023-11-18T22:21:20.418Z,0.52
2023-11-18T22:23:47.088Z,0.25
2023-11-18T22:26:13.582Z,0.40
2023-11-18T22:28:40.236Z,0.45
2023-11-18T22:31:06.895Z,0.20
2023-11-18T22:33:33.609Z,0.55
2023-11-18T22:36:00.280Z,0.35
2023-11-18T22:38:26.842Z,0.47
2023-11-18T22:40:56.039Z,0.20
2023-11-18T22:43:22.526Z,0.40
2023-11-18T22:45:49.184Z,0.20
2023-11-18T22:48:16.094Z,0.35
2023-11-18T22:50:42.839Z,0.43
2023-11-18T22:53:10.553Z,0.40
2023-11-18T22:55:37.221Z,0.40
2023-11-18T22:58:03.802Z,0.22
2023-11-18T23:00:30.273Z,0.13
2023-11-18T23:02:56.967Z,0.10
2023-11-18T23:05:23.715Z,0.30
2023-11-18T23:07:50.192Z,0.40
2023-11-18T23:10:17.312Z,0.50
2023-11-18T23:12:43.941Z,0.52
2023-11-18T23:15:10.565Z,0.45
2023-11-18T23:17:37.235Z,0.57
2023-11-18T23:20:04.222Z,0.43
2023-11-18T23:22:32.057Z,0.45
2023-11-18T23:24:58.681Z,0.55
2023-11-18T23:27:25.210Z,0.80
2023-11-18T23:29:51.775Z,0.40
2023-11-18T23:32:18.224Z,0.98
2023-11-18T23:34:44.714Z,0.50
2023-11-18T23:37:11.236Z,0.50
2023-11-18T23:39:37.947Z,0.35
2023-11-18T23:42:05.508Z,0.30
2023-11-18T23:44:34.336Z,0.57
2023-11-18T23:47:01.026Z,0.40
2023-11-18T23:49:27.921Z,0.45
2023-11-18T23:51:55.803Z,0.38
2023-11-18T23:54:22.619Z,0.20
2023-11-18T23:56:49.092Z,0.30
2023-11-18T23:59:15.568Z,0.30
